Time;durP1;ratioP1;P1;durP2;ratioP2;P2;SDS_P1;SDS_P2;PMS_P1;PMS_P2;Temp;Humidity;BMP_temperature;BMP_pressure;BME280_temperature;BME280_humidity;BME280_pressure;Samples;Min_cycle;Max_cycle;Signal;HPM_P1;HPM_P2
2023/09/29 00:01:38;;;;;;;0.40;0.40;;;14.80;99.90;;;;;;5056944;28;20064;-73
2023/09/29 00:04:06;;;;;;;8.30;0.90;;;14.80;99.90;;;;;;5061347;28;20494;-73
2023/09/29 00:06:32;;;;;;;0.40;0.40;;;14.80;99.90;;;;;;5055557;28;20040;-73
2023/09/29 00:09:06;;;;;;;0.40;0.40;;;14.80;99.90;;;;;;5052383;28;20075;-73
2023/09/29 00:11:32;;;;;;;0.40;0.40;;;14.80;99.90;;;;;;5055091;28;20386;-73
2023/09/29 00:13:58;;;;;;;0.63;0.63;;;14.80;99.90;;;;;;5048676;28;20130;-73
2023/09/29 00:16:25;;;;;;;0.50;0.50;;;14.80;99.90;;;;;;5034807;28;20465;-73
2023/09/29 00:18:50;;;;;;;0.90;0.82;;;14.80;99.90;;;;;;5071766;28;20448;-73
2023/09/29 00:21:16;;;;;;;0.40;0.40;;;14.80;99.90;;;;;;5059978;28;20052;-74
2023/09/29 00:23:42;;;;;;;1.42;0.55;;;14.80;99.90;;;;;;5061509;28;20115;-74
2023/09/29 00:26:08;;;;;;;0.35;0.35;;;14.80;99.90;;;;;;5063511;28;20084;-73
2023/09/29 00:28:33;;;;;;;0.40;0.40;;;14.80;99.90;;;;;;5055119;28;20502;-73
2023/09/29 00:30:59;;;;;;;0.52;0.43;;;14.80;99.90;;;;;;5053978;28;20460;-74
2023/09/29 00:33:25;;;;;;;0.40;0.40;;;14.80;99.90;;;;;;5061690;28;20036;-73
2023/09/29 00:35:51;;;;;;;0.40;0.40;;;14.90;99.90;;;;;;5053938;28;20156;-73
2023/09/29 00:38:17;;;;;;;0.50;0.50;;;14.90;99.90;;;;;;5060000;28;20124;-73
2023/09/29 00:40:42;;;;;;;0.40;0.40;;;14.90;99.90;;;;;;5064745;28;20122;-73
2023/09/29 00:43:08;;;;;;;0.43;0.43;;;14.90;99.90;;;;;;5046936;28;20402;-74
2023/09/29 00:45:35;;;;;;;0.40;0.40;;;14.90;99.90;;;;;;5062191;28;20049;-74
2023/09/29 00:48:08;;;;;;;0.40;0.40;;;14.90;99.90;;;;;;5061715;28;20041;-74
2023/09/29 00:50:35;;;;;;;0.57;0.57;;;15.00;99.90;;;;;;5061213;28;20051;-74
2023/09/29 00:53:09;;;;;;;0.30;0.30;;;15.00;99.90;;;;;;5066989;28;20037;-73
2023/09/29 00:55:36;;;;;;;0.38;0.38;;;15.00;99.90;;;;;;5052714;28;20079;-73
2023/09/29 00:58:02;;;;;;;0.40;0.40;;;15.10;99.90;;;;;;5042520;28;20044;-73
2023/09/29 01:00:32;;;;;;;0.30;0.30;;;15.10;99.90;;;;;;5066921;28;20371;-73
2023/09/29 01:03:02;;;;;;;0.40;0.40;;;15.10;99.90;;;;;;5058005;28;20131;-73
2023/09/29 01:05:32;;;;;;;0.60;0.60;;;15.20;99.90;;;;;;5052054;28;20504;-73
2023/09/29 01:07:58;;;;;;;0.75;0.68;;;15.20;99.90;;;;;;5037852;28;20119;-73
2023/09/29 01:10:24;;;;;;;0.43;0.43;;;15.20;99.90;;;;;;5067416;28;20570;-73
2023/09/29 01:12:49;;;;;;;0.60;0.60;;;15.20;99.90;;;;;;5042173;28;20044;-73
2023/09/29 01:15:17;;;;;;;0.50;0.50;;;15.30;99.90;;;;;;5063535;28;20038;-73
2023/09/29 01:17:46;;;;;;;0.40;0.40;;;15.30;99.90;;;;;;5059405;28;20032;-73
2023/09/29 01:20:29;;;;;;;0.40;0.40;;;15.30;99.90;;;;;;5056110;28;20111;-73
2023/09/29 01:22:56;;;;;;;0.93;0.93;;;15.30;99.90;;;;;;5058576;28;20513;-73
2023/09/29 01:25:22;;;;;;;0.40;0.40;;;15.30;99.90;;;;;;5045282;28;20033;-73
2023/09/29 01:27:49;;;;;;;0.63;0.63;;;15.30;99.90;;;;;;5059933;28;20682;-73
2023/09/29 01:30:14;;;;;;;0.40;0.40;;;15.30;99.90;;;;;;5067257;28;20044;-73
2023/09/29 01:32:46;;;;;;;0.40;0.40;;;15.20;99.90;;;;;;5057022;28;20123;-73
2023/09/29 01:35:18;;;;;;;0.50;0.50;;;15.30;99.90;;;;;;5059307;28;20040;-73
2023/09/29 01:37:48;;;;;;;0.50;0.50;;;15.30;99.90;;;;;;5039422;28;20039;-73
2023/09/29 01:40:15;;;;;;;0.50;0.50;;;15.30;99.90;;;;;;5042872;28;20067;-73
2023/09/29 01:42:45;;;;;;;0.50;0.50;;;15.30;99.90;;;;;;5060961;28;20040;-73
2023/09/29 01:45:11;;;;;;;0.40;0.40;;;15.30;99.90;;;;;;5066981;28;20036;-73
2023/09/29 01:47:38;;;;;;;0.50;0.50;;;15.30;99.90;;;;;;5058909;28;20028;-73
2023/09/29 01:50:05;;;;;;;0.30;0.30;;;15.30;99.90;;;;;;5059541;28;20041;-73
2023/09/29 01:52:31;;;;;;;1.42;1.02;;;15.30;99.90;;;;;;5055456;28;20032;-73
2023/09/29 01:54:57;;;;;;;0.40;0.40;;;15.30;99.90;;;;;;5061652;28;20121;-73
2023/09/29 01:57:22;;;;;;;0.50;0.50;;;15.30;99.90;;;;;;5054788;28;20498;-73
2023/09/29 01:59:49;;;;;;;0.30;0.30;;;15.30;99.90;;;;;;5061976;28;20040;-73
2023/09/29 02:02:15;;;;;;;0.40;0.40;;;15.30;99.90;;;;;;5057608;28;20051;-73
2023/09/29 02:04:41;;;;;;;0.30;0.30;;;15.30;99.90;;;;;;5040092;28;20478;-73
2023/09/29 02:07:07;;;;;;;0.20;0.20;;;15.30;99.90;;;;;;5061712;28;20044;-73
2023/09/29 02:09:33;;;;;;;0.30;0.30;;;15.40;99.90;;;;;;5057079;28;20072;-73
2023/09/29 02:12:01;;;;;;;0.65;0.65;;;15.30;99.90;;;;;;5058527;28;20078;-73
2023/09/29 02:14:27;;;;;;;0.35;0.35;;;15.40;99.90;;;;;;5056186;28;20060;-73
2023/09/29 02:16:53;;;;;;;0.50;0.50;;;15.40;99.90;;;;;;5059849;28;20611;-73
2023/09/29 02:19:19;;;;;;;0.60;0.60;;;15.40;99.90;;;;;;5056332;28;20120;-73
2023/09/29 02:21:45;;;;;;;0.30;0.30;;;15.40;99.90;;;;;;5070666;28;20036;-73
2023/09/29 02:24:12;;;;;;;0.52;0.45;;;15.40;99.90;;;;;;5054286;28;20040;-73
2023/09/29 02:26:38;;;;;;;0.52;0.52;;;15.40;99.90;;;;;;5063691;28;20055;-73
2023/09/29 02:29:04;;;;;;;0.30;0.30;;;15.50;99.90;;;;;;5065857;28;20042;-73
2023/09/29 02:31:30;;;;;;;1.05;0.43;;;15.50;99.90;;;;;;5055803;28;20063;-73
2023/09/29 02:33:56;;;;;;;0.55;0.55;;;15.50;99.90;;;;;;5069256;28;20039;-73
2023/09/29 02:36:21;;;;;;;0.55;0.55;;;15.50;99.90;;;;;;5054901;28;20076;-73
2023/09/29 02:38:49;;;;;;;0.30;0.30;;;15.50;99.90;;;;;;5066387;28;20068;-73
2023/09/29 02:41:14;;;;;;;0.40;0.40;;;15.50;99.90;;;;;;5065411;28;20036;-73
2023/09/29 02:43:40;;;;;;;1.33;1.15;;;15.60;99.90;;;;;;5062190;28;20055;-73
2023/09/29 02:46:14;;;;;;;0.63;0.63;;;15.60;99.90;;;;;;5043694;28;21034;-73
2023/09/29 02:48:41;;;;;;;0.57;0.57;;;15.60;99.90;;;;;;5061898;28;20036;-73
2023/09/29 02:51:17;;;;;;;0.47;0.47;;;15.60;99.90;;;;;;5062710;28;20044;-73
2023/09/29 02:53:43;;;;;;;0.57;0.57;;;15.60;99.90;;;;;;5070556;28;20040;-73
2023/09/29 02:56:11;;;;;;;0.82;0.82;;;15.60;99.90;;;;;;5059242;28;20051;-73
2023/09/29 02:58:40;;;;;;;;;;;15.60;99.90;;;;;;5064796;28;20121;-73
2023/09/29 03:01:12;;;;;;;0.40;0.40;;;15.60;99.90;;;;;;5061479;28;19928;-73
2023/09/29 03:03:43;;;;;;;0.40;0.40;;;15.60;99.90;;;;;;5061202;28;20039;-73
2023/09/29 03:06:12;;;;;;;0.45;0.45;;;15.60;99.90;;;;;;5054292;28;20562;-73
2023/09/29 03:08:39;;;;;;;0.57;0.57;;;15.60;99.90;;;;;;5057606;28;20047;-73
2023/09/29 03:11:09;;;;;;;0.38;0.38;;;15.70;99.90;;;;;;5061911;28;20051;-73
2023/09/29 03:13:40;;;;;;;0.63;0.63;;;15.70;99.90;;;;;;5058387;28;20404;-73
2023/09/29 03:16:07;;;;;;;0.75;0.75;;;15.70;99.90;;;;;;5061791;28;20048;-73
2023/09/29 03:18:36;;;;;;;0.30;0.30;;;15.70;99.90;;;;;;5057666;28;20762;-73
2023/09/29 03:21:07;;;;;;;1.23;1.13;;;15.70;99.90;;;;;;5054068;28;20397;-73
2023/09/29 03:23:37;;;;;;;0.60;0.60;;;15.70;99.90;;;;;;5042173;28;20071;-73
2023/09/29 03:26:03;;;;;;;0.65;0.65;;;15.70;99.90;;;;;;5059439;28;20047;-73
2023/09/29 03:28:30;;;;;;;1.52;0.70;;;15.70;99.90;;;;;;5056149;28;20059;-73
2023/09/29 03:30:56;;;;;;;0.40;0.40;;;15.70;99.90;;;;;;5063385;28;20153;-73
2023/09/29 03:33:21;;;;;;;0.70;0.70;;;15.80;99.90;;;;;;5065332;28;20107;-73
2023/09/29 03:35:47;;;;;;;0.50;0.50;;;15.80;99.90;;;;;;5039262;28;20498;-73
2023/09/29 03:38:20;;;;;;;0.50;0.50;;;15.70;99.90;;;;;;5056242;28;20052;-73
2023/09/29 03:40:50;;;;;;;1.33;1.00;;;15.80;99.90;;;;;;5055936;28;20051;-73
2023/09/29 03:43:19;;;;;;;0.52;0.52;;;15.80;99.90;;;;;;5059488;28;20051;-73
2023/09/29 03:45:46;;;;;;;1.65;0.60;;;15.70;99.90;;;;;;5061890;28;20051;-73
2023/09/29 03:48:15;;;;;;;0.35;0.35;;;15.80;99.90;;;;;;5040249;28;20036;-73
2023/09/29 03:50:41;;;;;;;0.75;0.75;;;15.80;99.90;;;;;;5045990;28;20035;-73
2023/09/29 03:53:07;;;;;;;1.38;0.82;;;15.70;99.90;;;;;;5065376;28;20400;-73
2023/09/29 03:55:33;;;;;;;0.68;0.68;;;15.80;99.90;;;;;;5061361;28;20051;-73
2023/09/29 03:58:00;;;;;;;0.45;0.45;;;15.80;99.90;;;;;;5052718;28;20081;-73
2023/09/29 04:00:26;;;;;;;0.70;0.70;;;15.80;99.90;;;;;;5056371;28;20042;-73
2023/09/29 04:02:52;;;;;;;0.50;0.50;;;15.70;99.90;;;;;;5058208;28;20413;-73
2023/09/29 04:05:19;;;;;;;0.47;0.47;;;15.80;99.90;;;;;;5058976;28;20059;-73
2023/09/29 04:07:45;;;;;;;0.35;0.35;;;15.70;99.90;;;;;;5054357;28;20058;-73
2023/09/29 04:10:12;;;;;;;0.95;0.95;;;15.70;99.90;;;;;;5061362;28;20408;-73
2023/09/29 04:12:43;;;;;;;0.40;0.40;;;15.80;99.90;;;;;;5061136;28;20444;-73
2023/09/29 04:15:09;;;;;;;0.50;0.50;;;15.80;99.90;;;;;;5065576;28;20044;-73
2023/09/29 04:17:35;;;;;;;0.90;0.90;;;15.80;99.90;;;;;;5067812;28;20067;-73
2023/09/29 04:20:02;;;;;;;2.55;1.20;;;15.80;99.90;;;;;;5061772;28;20593;-73
2023/09/29 04:22:28;;;;;;;1.55;1.13;;;15.80;99.90;;;;;;5063363;28;20040;-73
2023/09/29 04:24:56;;;;;;;0.60;0.60;;;15.80;99.90;;;;;;5064457;28;20043;-73
2023/09/29 04:27:21;;;;;;;0.73;0.73;;;15.90;99.90;;;;;;5036659;28;20036;-73
2023/09/29 04:29:47;;;;;;;0.60;0.60;;;15.90;99.90;;;;;;5047555;28;20039;-73
2023/09/29 04:32:13;;;;;;;0.60;0.60;;;15.90;99.90;;;;;;5063994;28;20032;-73
2023/09/29 04:34:38;;;;;;;0.55;0.55;;;15.90;99.90;;;;;;5062601;28;20064;-73
2023/09/29 04:37:04;;;;;;;0.55;0.55;;;15.90;99.90;;;;;;5061327;28;20051;-73
2023/09/29 04:39:30;;;;;;;0.63;0.63;;;16.00;99.90;;;;;;5062540;28;20036;-73
2023/09/29 04:41:55;;;;;;;0.68;0.68;;;16.00;99.90;;;;;;5057584;28;20043;-73
2023/09/29 04:44:21;;;;;;;0.73;0.73;;;16.10;99.90;;;;;;5059943;28;20043;-73
2023/09/29 04:46:46;;;;;;;0.85;0.85;;;16.10;99.90;;;;;;5066706;28;20062;-73
2023/09/29 04:49:12;;;;;;;1.02;1.02;;;16.10;99.90;;;;;;5066289;28;20047;-73
2023/09/29 04:51:38;;;;;;;0.60;0.60;;;16.10;99.90;;;;;;5061978;28;20067;-73
2023/09/29 04:54:04;;;;;;;0.82;0.82;;;16.20;99.90;;;;;;5044376;28;20063;-73
2023/09/29 04:56:30;;;;;;;0.82;0.82;;;16.20;99.90;;;;;;5042128;28;20044;-74
2023/09/29 04:58:56;;;;;;;0.55;0.55;;;16.20;99.90;;;;;;5065812;28;20054;-73
2023/09/29 05:01:24;;;;;;;0.60;0.60;;;16.20;99.90;;;;;;5057844;28;20455;-73
2023/09/29 05:03:53;;;;;;;0.85;0.68;;;16.30;99.90;;;;;;5068761;28;20040;-73
2023/09/29 05:06:19;;;;;;;1.55;0.60;;;16.30;99.90;;;;;;5064891;28;20326;-73
2023/09/29 05:08:45;;;;;;;0.70;0.70;;;16.30;99.90;;;;;;5062207;28;20096;-73
2023/09/29 05:11:25;;;;;;;0.40;0.40;;;16.30;99.90;;;;;;5055731;28;20555;-72
2023/09/29 05:13:52;;;;;;;2.10;0.75;;;16.30;99.90;;;;;;5067718;28;20036;-72
2023/09/29 05:16:18;;;;;;;0.98;0.85;;;16.30;99.90;;;;;;5057318;28;20040;-72
2023/09/29 05:18:45;;;;;;;0.60;0.60;;;16.40;99.90;;;;;;5061417;28;20036;-72
2023/09/29 05:21:11;;;;;;;0.77;0.77;;;16.40;99.90;;;;;;5063061;28;20442;-72
2023/09/29 05:23:37;;;;;;;0.40;0.40;;;16.40;99.90;;;;;;5062401;28;20395;-73
2023/09/29 05:26:07;;;;;;;1.58;1.48;;;16.40;99.90;;;;;;5063509;28;20130;-72
2023/09/29 05:28:34;;;;;;;0.63;0.43;;;16.40;99.90;;;;;;5057709;28;20039;-72
2023/09/29 05:31:00;;;;;;;0.60;0.60;;;16.40;99.90;;;;;;5061653;28;20041;-72
2023/09/29 05:33:26;;;;;;;0.75;0.75;;;16.40;99.90;;;;;;5062587;28;20157;-72
2023/09/29 05:35:51;;;;;;;0.50;0.50;;;16.40;99.90;;;;;;5061178;28;20507;-72
2023/09/29 05:38:18;;;;;;;0.40;0.40;;;16.50;99.90;;;;;;5057228;28;20082;-72
2023/09/29 05:40:44;;;;;;;0.70;0.70;;;16.40;99.90;;;;;;5059514;28;20048;-73
2023/09/29 05:43:10;;;;;;;0.55;0.55;;;16.40;99.90;;;;;;5057331;28;20409;-73
2023/09/29 05:45:39;;;;;;;1.13;1.02;;;16.50;99.90;;;;;;5063086;28;20048;-73
2023/09/29 05:48:08;;;;;;;1.17;1.15;;;16.50;99.90;;;;;;5067790;28;20044;-73
2023/09/29 05:50:35;;;;;;;0.65;0.55;;;16.50;99.90;;;;;;5044526;28;20082;-72
2023/09/29 05:53:02;;;;;;;0.63;0.63;;;16.50;99.90;;;;;;5056196;28;20389;-72
2023/09/29 05:55:28;;;;;;;0.68;0.68;;;16.50;99.90;;;;;;5057521;28;20039;-73
2023/09/29 05:57:54;;;;;;;0.80;0.80;;;16.50;99.90;;;;;;5066343;28;20039;-72
2023/09/29 06:00:20;;;;;;;0.60;0.60;;;16.50;99.90;;;;;;5065124;28;20032;-73
2023/09/29 06:02:46;;;;;;;1.25;1.15;;;16.50;99.90;;;;;;5048311;28;20135;-73
2023/09/29 06:05:13;;;;;;;4.13;0.60;;;16.50;99.90;;;;;;5055493;28;20048;-73
2023/09/29 06:07:39;;;;;;;0.30;0.30;;;16.50;99.90;;;;;;5068354;28;20591;-73
2023/09/29 06:10:06;;;;;;;0.73;0.73;;;16.50;99.90;;;;;;5070050;28;20048;-73
2023/09/29 06:12:33;;;;;;;2.08;1.50;;;16.50;99.90;;;;;;5067362;28;20048;-73
2023/09/29 06:14:59;;;;;;;8.13;1.23;;;16.50;99.90;;;;;;5072488;28;20106;-72
2023/09/29 06:17:24;;;;;;;0.82;0.82;;;16.50;99.90;;;;;;5061083;28;20036;-72
2023/09/29 06:19:51;;;;;;;0.88;0.88;;;16.50;99.90;;;;;;5048377;28;20512;-72
2023/09/29 06:22:17;;;;;;;0.77;0.77;;;16.50;99.90;;;;;;5038853;28;20044;-72
2023/09/29 06:24:44;;;;;;;1.00;1.00;;;16.40;99.90;;;;;;5048701;28;20085;-73
2023/09/29 06:27:13;;;;;;;3.22;1.25;;;16.50;99.90;;;;;;5046622;28;20032;-73
2023/09/29 06:29:39;;;;;;;0.60;0.60;;;16.50;99.90;;;;;;5049087;28;20089;-72
2023/09/29 06:32:06;;;;;;;1.25;1.08;;;16.50;99.90;;;;;;5047100;28;20036;-73
2023/09/29 06:34:32;;;;;;;2.65;0.95;;;16.50;99.90;;;;;;5066983;28;20117;-73
2023/09/29 06:36:57;;;;;;;1.13;1.13;;;16.50;99.90;;;;;;5053934;28;20502;-73
2023/09/29 06:39:23;;;;;;;0.88;0.88;;;16.60;99.90;;;;;;5064821;28;20028;-72
2023/09/29 06:41:49;;;;;;;0.65;0.65;;;16.60;99.90;;;;;;5070836;28;20066;-73
2023/09/29 06:44:14;;;;;;;1.98;1.65;;;16.60;99.90;;;;;;5072272;28;20044;-72
2023/09/29 06:46:40;;;;;;;0.63;0.63;;;16.60;99.90;;;;;;5056003;28;20516;-72
2023/09/29 06:49:07;;;;;;;1.15;1.15;;;16.60;99.90;;;;;;5062220;28;20478;-73
2023/09/29 06:51:34;;;;;;;0.47;0.47;;;16.70;99.90;;;;;;5062165;28;20396;-72
2023/09/29 06:54:00;;;;;;;0.80;0.80;;;16.60;99.90;;;;;;5047391;28;20032;-72
2023/09/29 06:56:25;;;;;;;0.75;0.75;;;16.70;99.90;;;;;;5060856;28;20120;-73
2023/09/29 06:58:51;;;;;;;1.45;1.35;;;16.70;99.90;;;;;;5046340;28;20032;-72
2023/09/29 07:01:17;;;;;;;0.75;0.75;;;16.70;99.90;;;;;;5068054;28;20509;-72
2023/09/29 07:03:45;;;;;;;1.73;1.45;;;16.70;99.90;;;;;;5053530;28;20048;-73
2023/09/29 07:06:11;;;;;;;0.55;0.50;;;16.70;99.90;;;;;;5066169;28;20101;-72
2023/09/29 07:08:37;;;;;;;2.00;0.85;;;16.70;99.90;;;;;;5046928;28;20052;-72
2023/09/29 07:11:05;;;;;;;0.60;0.60;;;16.70;99.90;;;;;;5064963;28;20071;-72
2023/09/29 07:13:34;;;;;;;0.80;0.80;;;16.80;99.90;;;;;;5075986;28;20512;-72
2023/09/29 07:16:00;;;;;;;0.40;0.40;;;16.70;99.90;;;;;;5057414;28;20043;-72
2023/09/29 07:18:25;;;;;;;0.50;0.50;;;16.80;99.90;;;;;;5042973;28;20041;-74
2023/09/29 07:20:53;;;;;;;0.90;0.90;;;16.80;99.90;;;;;;5060438;28;20043;-72
2023/09/29 07:23:23;;;;;;;0.90;0.90;;;16.80;99.90;;;;;;5057429;28;20124;-71
2023/09/29 07:25:52;;;;;;;0.40;0.40;;;16.80;99.90;;;;;;5065628;28;20040;-73
2023/09/29 07:28:18;;;;;;;0.40;0.40;;;16.90;99.90;;;;;;5054136;28;20033;-72
2023/09/29 07:30:45;;;;;;;0.35;0.35;;;16.90;99.90;;;;;;5062711;28;20047;-73
2023/09/29 07:33:11;;;;;;;1.05;0.95;;;16.90;99.90;;;;;;5055095;28;20040;-72
2023/09/29 07:35:45;;;;;;;0.30;0.30;;;17.00;99.90;;;;;;5059488;28;20044;-72
2023/09/29 07:38:12;;;;;;;2.85;0.68;;;17.00;99.90;;;;;;5053012;28;20298;-72
2023/09/29 07:40:38;;;;;;;0.77;0.77;;;17.10;99.90;;;;;;5036480;28;20595;-72
2023/09/29 07:43:05;;;;;;;0.30;0.30;;;17.10;99.90;;;;;;5062373;28;20040;-72
2023/09/29 07:45:32;;;;;;;0.60;0.60;;;17.20;99.90;;;;;;5061955;28;20442;-72
2023/09/29 07:47:57;;;;;;;0.60;0.60;;;17.30;99.90;;;;;;5059247;28;20117;-73
2023/09/29 07:50:23;;;;;;;0.47;0.40;;;17.30;99.90;;;;;;5050757;28;20076;-72
2023/09/29 07:52:49;;;;;;;0.45;0.45;;;17.40;99.90;;;;;;5042742;28;20047;-72
2023/09/29 07:55:14;;;;;;;0.30;0.30;;;17.40;99.90;;;;;;5055735;28;20049;-72
2023/09/29 07:57:40;;;;;;;0.95;0.88;;;17.50;99.90;;;;;;5041505;28;20041;-73
2023/09/29 08:00:09;;;;;;;0.85;0.85;;;17.50;99.90;;;;;;5063021;28;20119;-72
2023/09/29 08:02:35;;;;;;;0.38;0.38;;;17.60;99.90;;;;;;5057754;28;20161;-72
2023/09/29 08:05:02;;;;;;;0.40;0.40;;;17.60;99.90;;;;;;5057552;28;20240;-72
2023/09/29 08:07:27;;;;;;;0.45;0.45;;;17.70;99.90;;;;;;5055107;28;20086;-72
2023/09/29 08:09:53;;;;;;;0.73;0.73;;;17.80;99.90;;;;;;5057732;28;20044;-72
2023/09/29 08:12:19;;;;;;;0.57;0.57;;;17.90;99.90;;;;;;5042211;28;20731;-72
2023/09/29 08:14:47;;;;;;;0.57;0.57;;;18.00;99.90;;;;;;5053809;28;20048;-72
2023/09/29 08:17:13;;;;;;;0.60;0.60;;;18.10;99.90;;;;;;5063766;28;20506;-72
2023/09/29 08:19:39;;;;;;;1.95;0.73;;;18.20;99.90;;;;;;5057182;28;20051;-73
2023/09/29 08:22:05;;;;;;;0.50;0.50;;;18.30;99.90;;;;;;5061486;28;20052;-74
2023/09/29 08:24:32;;;;;;;0.50;0.43;;;18.40;99.90;;;;;;5046135;28;20032;-74
2023/09/29 08:26:57;;;;;;;0.55;0.55;;;18.40;99.90;;;;;;5058309;28;20047;-72
2023/09/29 08:29:23;;;;;;;0.50;0.50;;;18.60;99.90;;;;;;5064865;28;20044;-74
2023/09/29 08:31:49;;;;;;;0.47;0.47;;;18.60;99.90;;;;;;5065695;28;20039;-74
2023/09/29 08:34:15;;;;;;;0.40;0.40;;;18.70;99.90;;;;;;5043177;28;20036;-74
2023/09/29 08:36:41;;;;;;;0.60;0.60;;;18.80;99.90;;;;;;5064693;28;20040;-73
2023/09/29 08:39:07;;;;;;;0.38;0.38;;;18.90;99.90;;;;;;5048834;28;20036;-74
2023/09/29 08:41:35;;;;;;;0.50;0.50;;;19.10;99.90;;;;;;5070303;28;20044;-74
2023/09/29 08:44:03;;;;;;;0.40;0.40;;;19.20;99.90;;;;;;5061781;28;20084;-74
2023/09/29 08:46:31;;;;;;;0.30;0.30;;;19.40;99.90;;;;;;5061172;28;20558;-74
2023/09/29 08:48:57;;;;;;;0.30;0.30;;;19.60;99.90;;;;;;5046520;28;20044;-75
2023/09/29 08:51:24;;;;;;;0.40;0.40;;;19.70;99.90;;;;;;5060853;28;20032;-74
2023/09/29 08:53:50;;;;;;;1.23;1.13;;;19.80;99.90;;;;;;5056489;28;20048;-74
2023/09/29 08:56:17;;;;;;;0.70;0.70;;;19.90;99.90;;;;;;5053952;28;20055;-74
2023/09/29 08:58:43;;;;;;;0.30;0.30;;;20.10;99.90;;;;;;5049457;28;20044;-74
2023/09/29 09:01:09;;;;;;;0.95;0.95;;;20.20;99.90;;;;;;5054008;28;20064;-73
2023/09/29 09:03:35;;;;;;;0.30;0.30;;;20.30;99.90;;;;;;5064697;28;20219;-74
2023/09/29 09:06:01;;;;;;;0.70;0.70;;;20.40;99.90;;;;;;5067217;28;20040;-76
2023/09/29 09:08:27;;;;;;;0.75;0.75;;;20.50;99.90;;;;;;5048127;28;20480;-74
2023/09/29 09:11:03;;;;;;;0.57;0.57;;;20.60;99.90;;;;;;5056003;28;20041;-75
2023/09/29 09:13:28;;;;;;;0.75;0.75;;;20.70;99.90;;;;;;5056191;28;20043;-75
2023/09/29 09:15:59;;;;;;;0.55;0.52;;;20.90;99.90;;;;;;5063944;28;20048;-75
2023/09/29 09:18:27;;;;;;;1.00;0.90;;;21.00;99.90;;;;;;5063578;28;20052;-75
2023/09/29 09:20:57;;;;;;;0.45;0.45;;;21.10;99.90;;;;;;5057446;28;20044;-75
2023/09/29 09:23:23;;;;;;;0.35;0.35;;;21.20;99.90;;;;;;5060201;28;20089;-74
2023/09/29 09:25:49;;;;;;;0.40;0.40;;;21.40;99.90;;;;;;5059431;28;20036;-74
2023/09/29 09:28:18;;;;;;;1.48;1.00;;;21.40;99.90;;;;;;5056117;28;20044;-75
2023/09/29 09:30:46;;;;;;;0.85;0.85;;;21.50;99.90;;;;;;5041286;28;20043;-74
2023/09/29 09:33:21;;;;;;;;;;;21.50;99.90;;;;;;5064335;28;20391;-74
2023/09/29 09:35:47;;;;;;;0.80;0.80;;;21.60;99.90;;;;;;5045350;28;19916;-74
2023/09/29 09:38:13;;;;;;;0.90;0.90;;;21.80;99.90;;;;;;5060300;28;20048;-75
2023/09/29 09:40:40;;;;;;;1.85;0.98;;;22.00;99.90;;;;;;5063422;28;20047;-74
2023/09/29 09:43:07;;;;;;;0.35;0.35;;;22.00;99.90;;;;;;5039178;28;20040;-74
2023/09/29 09:45:43;;;;;;;0.65;0.65;;;22.10;99.90;;;;;;5065024;28;20033;-74
2023/09/29 09:48:10;;;;;;;0.35;0.35;;;22.10;99.90;;;;;;5063388;28;20135;-74
2023/09/29 09:50:40;;;;;;;0.43;0.43;;;22.00;99.90;;;;;;5042308;28;20037;-74
2023/09/29 09:53:09;;;;;;;0.40;0.40;;;22.10;99.90;;;;;;5065999;28;20394;-75
2023/09/29 09:55:35;;;;;;;0.95;0.95;;;22.10;99.90;;;;;;5055500;28;20081;-73
2023/09/29 09:58:13;;;;;;;0.40;0.40;;;22.20;99.90;;;;;;5044525;28;20036;-74
2023/09/29 10:00:45;;;;;;;0.43;0.43;;;22.20;99.90;;;;;;5049694;28;20045;-74
2023/09/29 10:03:12;;;;;;;0.40;0.40;;;22.30;99.90;;;;;;5063082;28;20044;-75
2023/09/29 10:05:46;;;;;;;0.55;0.55;;;22.40;99.90;;;;;;5054722;28;20498;-75
2023/09/29 10:08:24;;;;;;;0.50;0.50;;;22.40;99.90;;;;;;5061081;28;20101;-75
2023/09/29 10:10:49;;;;;;;;;;;22.40;99.90;;;;;;5062141;28;20040;-75
2023/09/29 10:13:16;;;;;;;0.40;0.40;;;22.50;99.90;;;;;;5065182;28;19917;-72
2023/09/29 10:15:42;;;;;;;0.52;0.52;;;22.60;99.90;;;;;;5061315;28;20042;-71
2023/09/29 10:18:19;;;;;;;0.82;0.82;;;22.60;99.90;;;;;;5053303;28;20052;-71
2023/09/29 10:20:50;;;;;;;2.00;1.40;;;22.60;99.90;;;;;;5063143;28;20040;-71
2023/09/29 10:23:16;;;;;;;0.30;0.30;;;22.50;99.90;;;;;;5047222;28;20029;-71
2023/09/29 10:25:55;;;;;;;0.40;0.40;;;22.60;99.90;;;;;;5064080;28;20029;-71
2023/09/29 10:28:31;;;;;;;0.40;0.40;;;22.50;99.90;;;;;;5060401;28;20033;-72
2023/09/29 10:31:09;;;;;;;0.60;0.60;;;22.50;99.90;;;;;;5061569;28;20063;-72
2023/09/29 10:34:04;;;;;;;0.65;0.65;;;22.60;99.90;;;;;;5038946;28;20609;-71
2023/09/29 10:36:30;;;;;;;0.52;0.52;;;22.50;99.90;;;;;;5017351;28;20051;-72
2023/09/29 10:38:58;;;;;;;1.00;0.85;;;22.30;99.90;;;;;;5057560;28;20375;-72
2023/09/29 10:41:24;;;;;;;0.40;0.40;;;22.30;99.90;;;;;;5064674;28;20495;-72
2023/09/29 10:43:51;;;;;;;0.50;0.50;;;22.30;99.90;;;;;;5047501;28;20033;-71
2023/09/29 10:46:21;;;;;;;0.80;0.80;;;22.20;99.90;;;;;;5047865;28;20551;-71
2023/09/29 10:48:52;;;;;;;0.65;0.43;;;22.10;99.90;;;;;;5046403;28;20435;-72
2023/09/29 10:51:30;;;;;;;0.50;0.50;;;22.10;99.90;;;;;;5062997;28;20040;-71
2023/09/29 10:54:02;;;;;;;0.43;0.43;;;22.00;99.90;;;;;;5063891;28;20036;-72
2023/09/29 10:56:28;;;;;;;0.40;0.40;;;21.90;99.90;;;;;;5060109;28;20045;-72
2023/09/29 10:58:55;;;;;;;0.40;0.40;;;21.90;99.90;;;;;;5045419;28;20097;-75
2023/09/29 11:01:27;;;;;;;0.70;0.70;;;21.80;99.90;;;;;;5057417;28;20053;-74
2023/09/29 11:03:54;;;;;;;0.57;0.57;;;21.70;99.90;;;;;;5027157;28;20276;-74
2023/09/29 11:06:21;;;;;;;0.60;0.60;;;21.70;99.90;;;;;;5028058;28;20082;-74
2023/09/29 11:08:56;;;;;;;0.93;0.93;;;21.60;99.90;;;;;;5047584;28;20587;-74
2023/09/29 11:11:25;;;;;;;0.40;0.40;;;21.60;99.90;;;;;;5047254;28;20036;-74
2023/09/29 11:13:57;;;;;;;0.63;0.63;;;21.60;99.90;;;;;;5046006;28;20048;-74
2023/09/29 11:16:26;;;;;;;0.35;0.35;;;21.60;99.90;;;;;;5011898;28;20037;-74
2023/09/29 11:18:56;;;;;;;1.05;1.05;;;21.50;99.90;;;;;;5044320;28;20036;-74
2023/09/29 11:21:33;;;;;;;0.75;0.63;;;21.50;99.90;;;;;;5041719;28;20044;-74
2023/09/29 11:24:06;;;;;;;0.68;0.68;;;21.50;99.90;;;;;;5047834;28;20491;-75
2023/09/29 11:26:33;;;;;;;0.47;0.47;;;21.50;99.90;;;;;;5040710;28;20072;-74
2023/09/29 11:28:58;;;;;;;0.73;0.73;;;21.60;99.90;;;;;;5031010;28;20107;-75
2023/09/29 11:31:24;;;;;;;1.05;0.93;;;21.60;99.90;;;;;;5028053;28;20033;-75
2023/09/29 11:33:51;;;;;;;2.50;1.92;;;21.50;99.90;;;;;;5027105;28;20072;-77
2023/09/29 11:36:23;;;;;;;0.50;0.50;;;21.60;99.90;;;;;;5045812;28;20045;-76
2023/09/29 11:38:50;;;;;;;0.73;0.73;;;21.50;99.90;;;;;;5037099;28;20041;-75
2023/09/29 11:41:17;;;;;;;0.80;0.80;;;21.50;99.90;;;;;;5046777;28;20049;-76
2023/09/29 11:43:45;;;;;;;0.50;0.50;;;21.50;99.90;;;;;;5024064;28;20072;-75
2023/09/29 11:46:11;;;;;;;;;;;21.40;99.90;;;;;;5047420;28;20047;-74
2023/09/29 11:48:37;;;;;;;0.30;0.30;;;21.40;99.90;;;;;;5042776;28;20251;-75
2023/09/29 11:51:03;;;;;;;0.50;0.50;;;21.40;99.90;;;;;;5027978;28;20029;-75
2023/09/29 11:53:30;;;;;;;1.00;1.00;;;21.30;99.90;;;;;;5041039;28;20037;-75
2023/09/29 11:55:56;;;;;;;0.57;0.57;;;21.30;99.90;;;;;;5014831;28;20045;-74
2023/09/29 11:58:23;;;;;;;0.50;0.50;;;21.20;99.90;;;;;;5042134;28;20041;-75
2023/09/29 12:00:49;;;;;;;0.88;0.85;;;21.20;99.90;;;;;;5024388;28;20112;-75
2023/09/29 12:03:16;;;;;;;0.30;0.30;;;21.20;99.90;;;;;;5018625;28;20521;-74
2023/09/29 12:05:44;;;;;;;0.43;0.43;;;21.10;99.90;;;;;;5042746;28;20048;-75
2023/09/29 12:08:10;;;;;;;0.75;0.75;;;21.10;99.90;;;;;;5038441;28;20119;-74
2023/09/29 12:10:36;;;;;;;0.50;0.50;;;21.10;99.90;;;;;;5020298;28;20439;-75
2023/09/29 12:13:04;;;;;;;0.90;0.90;;;21.10;99.90;;;;;;5027900;28;20037;-75
2023/09/29 12:15:31;;;;;;;0.65;0.65;;;21.10;99.90;;;;;;5044646;28;20045;-75
2023/09/29 12:17:56;;;;;;;0.57;0.57;;;21.10;99.90;;;;;;5040700;28;20383;-75
2023/09/29 12:20:24;;;;;;;0.45;0.40;;;21.10;99.90;;;;;;5036634;28;20502;-75
2023/09/29 12:22:50;;;;;;;0.60;0.60;;;21.10;99.90;;;;;;5023179;28;20048;-75
2023/09/29 12:25:16;;;;;;;0.30;0.30;;;21.20;99.90;;;;;;5043385;28;20132;-74
2023/09/29 12:27:44;;;;;;;1.55;0.95;;;21.20;99.90;;;;;;5039974;28;20084;-75
2023/09/29 12:30:14;;;;;;;0.57;0.57;;;21.20;99.90;;;;;;5040639;28;20045;-75
2023/09/29 12:32:44;;;;;;;0.55;0.55;;;21.30;99.90;;;;;;5033511;28;20033;-75
2023/09/29 12:35:12;;;;;;;0.65;0.60;;;21.40;99.90;;;;;;5031557;28;20104;-75
2023/09/29 12:37:39;;;;;;;1.35;0.70;;;21.40;99.90;;;;;;5039424;28;20132;-75
2023/09/29 12:40:11;;;;;;;1.98;0.85;;;21.50;99.90;;;;;;5054176;28;20040;-75
2023/09/29 12:42:46;;;;;;;0.40;0.40;;;21.50;99.90;;;;;;5037301;28;20044;-75
2023/09/29 12:45:31;;;;;;;0.63;0.63;;;21.50;99.90;;;;;;5040326;28;20065;-75
2023/09/29 12:47:58;;;;;;;1.00;1.00;;;21.50;99.90;;;;;;5025794;28;20453;-75
2023/09/29 12:50:27;;;;;;;0.73;0.68;;;21.50;99.90;;;;;;5030327;28;20037;-75